• Join FlightAware (Why Join?)
  • Login
  • US Flag 
07:27PM EDT


 

Airport Tracker/Info


-or-


 

Live Flight TrackerFlight Track Log ✈ UAL1206 ✈ 07-May-2013 ✈ KMCO - KEWR

Flight Track Log - Related Links

Times and Time Zones

All times are in EDT time to prevent confusion due to time zone crossing. See the UAL1206 flight status page for this flight to view local times or setup timezone preferences in your user account.

Time Position Orientation Groundspeed Altitude Reporting Facility
EDT Latitude Longitude Course Direction KTS MPH feet Rate Location/Type
12:16PM 28.4090 -81.2960 180° South 178 205 200  Level FlightAware
12:17PM 28.3850 -81.2880 164° South 201 231 1,100 1,740 Climbing FlightAware
12:17PM 28.3620 -81.2750 154° Southeast 223 257 1,800 2,280 Climbing FlightAware
12:18PM 28.3330 -81.2570 151° Southeast 236 272 3,200 2,640 Climbing FlightAware
12:18PM 28.3190 -81.2480 150° Southeast 243 280 3,800 2,700 Climbing FlightAware
12:18PM 28.2950 -81.2330 151° Southeast 240 276 5,000 2,820 Climbing FlightAware
12:19PM 28.2670 -81.2070 141° Southeast 254 292 6,400 2,580 Climbing FlightAware
12:19PM 28.2510 -81.1800 124° Southeast 266 306 7,400 2,400 Climbing FlightAware
12:20PM 28.2290 -81.1420 123° Southeast 281 323 8,600 1,860 Climbing FlightAware
12:20PM 28.2120 -81.1010 115° Southeast 317 365 9,300 1,680 Climbing FlightAware
12:21PM 28.2150 -81.0330 87° East 340 391 10,600 1,800 Climbing FlightAware
12:22PM 28.2210 -80.9560 85° East 374 430 11,700 1,920 Climbing FlightAware
12:22PM 28.2340 -80.8670 81° East 386 444 13,400 2,280 Climbing FlightAware
12:23PM 28.2630 -80.7920 66° East 394 453 15,000 2,400 Climbing FlightAware
12:24PM 28.2970 -80.7050 66° East 401 461 16,800 2,220 Climbing FlightAware
12:25PM 28.3280 -80.6280 65° Northeast 407 468 18,200 1,920 Climbing FlightAware
12:25PM 28.3590 -80.5490 66° East 417 480 19,400 1,740 Climbing FlightAware
12:26PM 28.3960 -80.4570 65° Northeast 434 499 20,700 1,620 Climbing FlightAware
12:27PM 28.4300 -80.3730 65° Northeast 443 510 21,700 1,500 Climbing FlightAware
12:27PM 28.4720 -80.2740 64° Northeast 458 527 22,900 1,500 Climbing FlightAware
12:28PM 28.5050 -80.1960 64° Northeast 458 527 23,900 780 Climbing FlightAware
12:29PM 28.5340 -80.1250 65° Northeast 458 527 23,900  Level FlightAware
12:29PM 28.5720 -80.0320 65° Northeast 458 527 23,900 1,680 Level FlightAware
12:31PM 28.7140 -79.8400 50° Northeast 479 551 27,700 1,800 Climbing FlightAware
12:32PM 28.7640 -79.7780 47° Northeast 479 551 27,700  Level FlightAware
12:32PM 28.8160 -79.7150 47° Northeast 479 551 27,700  Level FlightAware
12:33PM 28.8670 -79.6520 47° Northeast 479 551 27,700  Level FlightAware
12:34PM 28.9180 -79.5890 47° Northeast 479 551 27,700  Level FlightAware
12:34PM 28.9820 -79.5110 47° Northeast 479 551 27,700  Level FlightAware
12:35PM 29.0210 -79.4630 47° Northeast 479 551 27,700 1,380 Level FlightAware
12:36PM 29.1925 -79.2644 47° Northeast 488 562 29,800 1,500 Climbing Miami Center
12:37PM 29.2903 -79.1428 47° Northeast 498 573 30,800 1,080 Climbing Miami Center
12:38PM 29.3922 -79.0258 45° Northeast 503 579 32,000 1,080 Climbing Miami Center
12:39PM 29.4900 -78.9064 47° Northeast 514 592 33,000 480 Climbing Miami Center
12:40PM 29.5856 -78.7817 49° Northeast 514 592 33,000  Level Miami Center
12:41PM 29.6853 -78.6639 46° Northeast 514 592 33,000 -60 Level Miami Center
12:42PM 29.7806 -78.5414 48° Northeast 514 592 32,900  Descending Miami Center
12:43PM 29.8847 -78.4014 49° Northeast 512 589 33,000  Climbing Jacksonville Center
12:44PM 29.9806 -78.2769 48° Northeast 512 589 33,000  Level Jacksonville Center
12:45PM 30.0847 -78.1569 45° Northeast 512 589 33,000  Level Jacksonville Center
12:46PM 30.1800 -78.0297 49° Northeast 517 595 33,000  Level Jacksonville Center
12:47PM 30.2814 -77.8994 48° Northeast 530 610 33,000 300 Level Jacksonville Center
12:48PM 30.3808 -77.7717 48° Northeast 530 610 33,600 480 Climbing Jacksonville Center
12:49PM 30.4478 -77.6233 62° Northeast 528 608 34,000 180 Climbing Jacksonville Center
12:50PM 30.5008 -77.4444 71° East 538 619 34,000  Level Jacksonville Center
12:51PM 30.4000 -77.7500 69° East 621 715 34,000  Level New York Oceanic (ODAPS)
12:52PM 30.6039 -77.1322 69° East 521 600 34,000  Level Jacksonville Center
12:54PM 30.6500 -77.0000 49° Northeast 534 615 34,000  Level New York Oceanic (ODAPS)
01:00PM 31.3303 -76.0873 49° Northeast 534 615 34,000  Level FlightAware Transoceanic
01:01PM 31.4270 -75.9558 49° Northeast 534 615 34,000  Level FlightAware Transoceanic
01:02PM 31.5235 -75.8241 49° Northeast 534 615 34,000  Level FlightAware Transoceanic
01:03PM 31.6199 -75.6921 49° Northeast 534 615 34,000  Level FlightAware Transoceanic
01:04PM 31.7162 -75.5598 50° Northeast 534 615 34,000  Level FlightAware Transoceanic
01:05PM 31.8123 -75.4273 50° Northeast 534 615 34,000  Level FlightAware Transoceanic
01:06PM 31.9083 -75.2944 50° Northeast 534 615 34,000  Level FlightAware Transoceanic
01:07PM 32.0041 -75.1613 50° Northeast 534 615 34,000  Level FlightAware Transoceanic
01:08PM 32.0998 -75.0280 50° Northeast 534 615 34,000  Level FlightAware Transoceanic
01:09PM 32.1954 -74.8943 50° Northeast 534 615 34,000  Level FlightAware Transoceanic
01:10PM 32.2908 -74.7604 50° Northeast 534 615 34,000  Level FlightAware Transoceanic
01:11PM 32.3861 -74.6261 50° Northeast 534 615 34,000  Level FlightAware Transoceanic
01:12PM 32.4812 -74.4916 50° Northeast 534 615 34,000  Level FlightAware Transoceanic
01:13PM 32.5762 -74.3568 50° Northeast 534 615 34,000  Level FlightAware Transoceanic
01:14PM 32.6711 -74.2218 50° Northeast 534 615 34,000  Level FlightAware Transoceanic
01:15PM 32.7658 -74.0864 50° Northeast 534 615 34,000  Level FlightAware Transoceanic
01:16PM 32.8603 -73.9507 50° Northeast 534 615 34,000  Level FlightAware Transoceanic
01:17PM 32.9547 -73.8148 50° Northeast 534 615 34,000  Level FlightAware Transoceanic
01:18PM 33.0490 -73.6786 51° Northeast 534 615 34,000  Level FlightAware Transoceanic
01:19PM 33.1431 -73.5420 51° Northeast 534 615 34,000  Level FlightAware Transoceanic
01:20PM 33.2371 -73.4052 51° Northeast 534 615 34,000  Level FlightAware Transoceanic
01:21PM 33.3309 -73.2681 51° Northeast 534 615 34,000  Level FlightAware Transoceanic
01:21PM 33.2500 -73.4000 51° Northeast 528 608 34,000  Level New York Oceanic (ODAPS)
01:22PM 33.4245 -73.1307 51° Northeast 534 615 34,000  Level FlightAware Transoceanic
01:23PM 33.5181 -72.9930 51° Northeast 534 615 34,000  Level FlightAware Transoceanic
01:24PM 33.6114 -72.8550 51° Northeast 534 615 34,000  Level FlightAware Transoceanic
01:25PM 33.7046 -72.7167 51° Northeast 534 615 34,000  Level FlightAware Transoceanic
01:26PM 33.7977 -72.5781 51° Northeast 534 615 34,000  Level FlightAware Transoceanic
01:27PM 33.8906 -72.4392 51° Northeast 534 615 34,000  Level FlightAware Transoceanic
01:28PM 33.8922 -72.4385 52° Northeast 528 608 34,000  Level FlightAware Transoceanic
01:29PM 33.9833 -72.3000 355° North 528 608 34,000  Level FlightAware Transoceanic
01:30PM 34.1167 -72.3144 355° North 528 608 34,000  Level FlightAware Transoceanic
01:31PM 34.2500 -72.3289 355° North 528 608 34,000  Level FlightAware Transoceanic
01:32PM 34.3834 -72.3434 355° North 528 608 34,000  Level FlightAware Transoceanic
01:32PM 34.4264 -72.3406 355° North 455 524 34,000  Level New York Center
01:33PM 34.5167 -72.3580 355° North 528 608 34,000  Level FlightAware Transoceanic
01:33PM 34.5533 -72.3556 354° North 474 545 34,000  Level New York Center
01:34PM 34.6500 -72.3726 355° North 528 608 34,000  Level FlightAware Transoceanic
01:34PM 34.6825 -72.3733 354° North 477 549 34,000  Level New York Center
01:35PM 34.8178 -72.3814 357° North 477 549 34,000  Level New York Center
01:36PM 34.9511 -72.3967 355° North 476 548 34,000  Level New York Center
01:37PM 35.0803 -72.4094 355° North 484 557 34,000  Level New York Center
01:38PM 35.2139 -72.4097 360° North 467 537 34,000  Level New York Center
01:39PM 35.3453 -72.4075 North 462 532 34,000 -60 Level New York Center
01:40PM 35.4789 -72.4053 North 467 537 33,900  Descending New York Center
01:41PM 35.6103 -72.4056 360° North 467 537 34,000  Climbing New York Center
01:42PM 35.7397 -72.4058 360° North 468 539 34,000  Level New York Center
01:43PM 35.8711 -72.4008 North 468 539 34,000  Level New York Center
01:44PM 36.0025 -72.3986 North 468 539 34,000  Level New York Center
01:45PM 36.1297 -72.4014 359° North 462 532 34,000  Level New York Center
01:46PM 36.2883 -72.3997 360° North 462 532 34,000  Level New York Center
01:47PM 36.4178 -72.3972 North 462 532 34,000  Level New York Center
01:48PM 36.5658 -72.3981 360° North 462 532 34,000  Level New York Center
01:49PM 36.6953 -72.3983 360° North 468 539 34,000 -60 Level New York Center
01:50PM 36.8247 -72.3958 North 468 539 33,900  Descending New York Center
01:51PM 36.9539 -72.3936 North 460 529 34,000  Climbing New York Center
01:52PM 37.0894 -72.3939 360° North 460 529 34,000  Level New York Center
01:53PM 37.2147 -72.3914 North 466 536 34,000 -60 Level New York Center
01:54PM 37.3461 -72.3892 North 461 531 33,900  Descending New York Center
01:55PM 37.4819 -72.3869 North 466 536 34,000  Climbing New York Center
02:00PM 38.1840 -72.2990 North 488 562 34,000  Level FlightAware
02:01PM 38.2351 -72.2862 11° North 489 563 34,000  Level FlightAware ADS-B
02:01PM 38.3201 -72.2643 11° North 489 563 34,000  Level FlightAware ADS-B
02:02PM 38.4079 -72.2415 12° North 483 556 34,000  Level FlightAware ADS-B
02:03PM 38.4879 -72.2207 12° North 482 555 34,000  Level FlightAware ADS-B
02:03PM 38.5619 -72.2023 11° North 482 555 34,000 -480 Level FlightAware ADS-B
02:04PM 38.6780 -72.1960 North 468 539 33,300 -1,320 Descending FlightAware
02:04PM 38.7252 -72.1952 North 482 555 32,400 -4,140 Descending FlightAware ADS-B
02:04PM 38.7437 -72.1949 North 475 547 32,000 -2,580 Descending FlightAware ADS-B
02:05PM 38.8130 -72.1940 North 470 541 30,700 -2,160 Descending FlightAware ADS-B
02:06PM 38.9175 -72.1932 360° North 457 526 29,100 -2,040 Descending FlightAware ADS-B
02:06PM 39.0039 -72.1931 360° North 445 512 27,700 -1,920 Descending FlightAware ADS-B
02:07PM 39.0806 -72.1926 360° North 435 501 26,600 -1,920 Descending FlightAware ADS-B
02:08PM 39.1299 -72.1923 360° North 430 495 25,700 -2,340 Descending FlightAware ADS-B
02:08PM 39.1419 -72.1938 354° North 431 496 25,400 -2,160 Descending FlightAware ADS-B
02:08PM 39.1774 -72.2077 343° North 422 486 24,800 -2,340 Descending FlightAware ADS-B
02:10PM 39.3892 -72.4080 324° Northwest 422 486 19,500 -2,400 Descending FlightAware ADS-B
02:10PM 39.3973 -72.4158 323° Northwest 401 461 19,300 -1,980 Descending FlightAware ADS-B
02:12PM 39.5419 -72.5558 323° Northwest 381 438 16,100 -1,800 Descending FlightAware ADS-B
02:13PM 39.6219 -72.6358 323° Northwest 380 437 14,400 -1,800 Descending New York Center
02:14PM 39.7019 -72.7136 323° Northwest 373 429 12,500 -1,920 Descending New York Center
02:15PM 39.7797 -72.7939 322° Northwest 360 414 10,700 -1,320 Descending New York Center
02:16PM 39.8239 -72.8900 301° West 334 384 9,900 -1,080 Descending New York Center
02:17PM 39.8242 -72.9900 270° West 290 334 8,600 -1,020 Descending New York Center
02:18PM 39.8242 -73.0981 270° West 290 334 7,900 -300 Descending New York Center
02:19PM 39.8261 -73.2036 271° West 290 334 8,000 -180 Climbing New York Center
02:25PM 39.9700 -73.7790 271° West 287 330 6,800 -240 Descending FlightAware
02:25PM 39.9870 -73.8320 293° West 289 333 6,700 -360 Descending FlightAware
02:26PM 40.0000 -73.8710 294° West 289 333 6,500 -600 Descending FlightAware
02:26PM 40.0080 -73.8970 292° West 289 333 6,300 -540 Descending FlightAware
02:27PM 40.0240 -73.9450 294° West 288 331 6,100 -480 Descending FlightAware
02:27PM 40.0371 -73.9842 294° West 288 331 5,900 -360 Descending FlightAware ADS-B
02:28PM 40.0520 -74.0300 293° West 284 327 5,800 -180 Descending FlightAware
02:28PM 40.0559 -74.0415 294° West 285 328 5,800  Level FlightAware ADS-B
02:28PM 40.0647 -74.0681 293° West 284 327 5,800  Level FlightAware ADS-B
02:28PM 40.0734 -74.0949 293° West 283 326 5,800  Level FlightAware ADS-B
02:29PM 40.0835 -74.1262 293° West 283 326 5,800  Level FlightAware ADS-B
02:29PM 40.0974 -74.1693 293° West 284 327 5,800  Level FlightAware ADS-B
02:29PM 40.1051 -74.1932 293° West 285 328 5,800  Level FlightAware ADS-B
02:29PM 40.1133 -74.2185 293° West 285 328 5,800  Level FlightAware ADS-B
02:30PM 40.1212 -74.2429 293° West 285 328 5,800  Level FlightAware ADS-B
02:30PM 40.1291 -74.2670 293° West 285 328 5,800  Level FlightAware ADS-B
02:30PM 40.1382 -74.2953 293° West 287 330 5,800  Level FlightAware ADS-B
02:31PM 40.1470 -74.3227 293° West 287 330 5,800  Level FlightAware ADS-B
02:31PM 40.1550 -74.3477 293° West 287 330 5,800  Level FlightAware ADS-B
02:31PM 40.1687 -74.3902 293° West 288 331 5,800  Level FlightAware ADS-B
02:32PM 40.1773 -74.4168 293° West 289 333 5,800  Level FlightAware ADS-B
02:32PM 40.1852 -74.4415 293° West 290 334 5,800  Level FlightAware ADS-B
02:32PM 40.1938 -74.4683 293° West 289 333 5,800  Level FlightAware ADS-B
02:32PM 40.2036 -74.4920 298° West 292 336 5,800  Level FlightAware ADS-B
02:33PM 40.2124 -74.5056 310° West 292 336 5,800  Level FlightAware ADS-B
02:33PM 40.2225 -74.5172 319° Northwest 292 336 5,800  Level FlightAware ADS-B
02:33PM 40.2390 -74.5351 320° Northwest 292 336 5,800  Level FlightAware ADS-B
02:33PM 40.2437 -74.5396 324° Northwest 292 336 5,800 720 Level FlightAware ADS-B
02:33PM 40.2474 -74.5427 327° Northwest 292 336 5,900  Climbing FlightAware ADS-B
02:33PM 40.2536 -74.5465 335° Northwest 290 334 5,800 -720 Descending FlightAware ADS-B
02:33PM 40.2587 -74.5489 340° North 291 335 5,800  Level FlightAware ADS-B
02:33PM 40.2661 -74.5515 345° North 290 334 5,800  Level FlightAware ADS-B
02:34PM 40.2889 -74.5593 345° North 291 335 5,800  Level FlightAware ADS-B
02:34PM 40.3098 -74.5663 346° North 291 335 5,800  Level FlightAware ADS-B
02:34PM 40.3252 -74.5710 347° North 289 333 5,800 240 Level FlightAware ADS-B
02:34PM 40.3422 -74.5733 354° North 289 333 5,900  Climbing FlightAware ADS-B
02:35PM 40.3640 -74.5759 355° North 288 331 5,800 -240 Descending FlightAware ADS-B
02:35PM 40.3847 -74.5783 355° North 286 329 5,800  Level FlightAware ADS-B
02:35PM 40.4048 -74.5805 355° North 285 328 5,800  Level FlightAware ADS-B
02:35PM 40.4068 -74.5807 356° North 285 328 5,800  Level FlightAware ADS-B
02:35PM 40.4268 -74.5829 355° North 284 327 5,800  Level FlightAware ADS-B
02:36PM 40.4483 -74.5852 355° North 284 327 5,800  Level FlightAware ADS-B
02:36PM 40.4697 -74.5874 356° North 283 326 5,800  Level FlightAware ADS-B
02:36PM 40.4862 -74.5891 356° North 284 327 5,800  Level FlightAware ADS-B
02:36PM 40.4900 -74.5895 355° North 282 325 5,800  Level FlightAware ADS-B
02:36PM 40.5066 -74.5912 356° North 281 323 5,800  Level FlightAware ADS-B
02:37PM 40.5262 -74.5934 355° North 281 323 5,800  Level FlightAware ADS-B
02:37PM 40.5454 -74.5949 357° North 279 321 5,800  Level FlightAware ADS-B
02:37PM 40.5520 -74.5945 North 279 321 5,800  Level FlightAware ADS-B
02:37PM 40.5639 -74.5933 North 280 322 5,800  Level FlightAware ADS-B
02:37PM 40.5843 -74.5909 North 279 321 5,800  Level FlightAware ADS-B
02:38PM 40.6416 -74.5844 North 279 321 5,800  Level FlightAware ADS-B
02:38PM 40.6675 -74.5816 North 280 322 5,800  Level FlightAware ADS-B
02:39PM 40.6870 -74.5794 North 280 322 5,800  Level FlightAware ADS-B
02:39PM 40.7039 -74.5775 North 280 322 5,800  Level FlightAware ADS-B
02:39PM 40.7108 -74.5768 North 280 322 5,800 -840 Level FlightAware ADS-B
02:39PM 40.7341 -74.5742 North 279 321 5,500 -1,320 Descending FlightAware ADS-B
02:40PM 40.7536 -74.5722 North 279 321 5,100 -1,200 Descending FlightAware ADS-B
02:40PM 40.7661 -74.5708 North 277 319 5,000 -960 Descending FlightAware ADS-B
02:40PM 40.7775 -74.5695 North 274 315 4,800 -480 Descending FlightAware ADS-B
02:40PM 40.7998 -74.5581 21° North 266 306 4,800  Level FlightAware ADS-B
02:40PM 40.8115 -74.5476 34° Northeast 265 305 4,800  Level FlightAware ADS-B
02:41PM 40.8272 -74.5334 34° Northeast 266 306 4,800  Level FlightAware ADS-B
02:41PM 40.8293 -74.5314 36° Northeast 267 307 4,800  Level FlightAware ADS-B
02:41PM 40.8438 -74.5184 34° Northeast 268 308 4,800  Level FlightAware ADS-B
02:41PM 40.8462 -74.5162 35° Northeast 268 308 4,800  Level FlightAware ADS-B
02:41PM 40.8665 -74.4982 34° Northeast 267 307 4,800  Level FlightAware ADS-B
02:42PM 40.8913 -74.4761 34° Northeast 269 310 4,800  Level FlightAware ADS-B
02:42PM 40.9081 -74.4612 34° Northeast 267 307 4,800  Level FlightAware ADS-B
02:42PM 40.9182 -74.4522 34° Northeast 268 308 4,800  Level FlightAware ADS-B
02:43PM 40.9570 -74.4180 34° Northeast 231 266 4,800 60 Level FlightAware
02:43PM 40.9840 -74.3930 35° Northeast 226 260 4,900  Climbing FlightAware
02:44PM 40.9968 -74.3787 40° Northeast 220 253 4,800 -360 Descending FlightAware ADS-B
02:44PM 40.9987 -74.3741 61° Northeast 220 253 4,800  Level FlightAware ADS-B
02:44PM 40.9999 -74.3701 68° East 220 253 4,800  Level FlightAware ADS-B
02:44PM 41.0008 -74.3656 75° East 219 252 4,800  Level FlightAware ADS-B
02:44PM 41.0012 -74.3610 83° East 218 251 4,800  Level FlightAware ADS-B
02:44PM 41.0007 -74.3525 94° East 217 250 4,800  Level FlightAware ADS-B
02:44PM 40.9997 -74.3472 104° East 216 249 4,800  Level FlightAware ADS-B
02:44PM 40.9958 -74.3290 106° East 216 249 4,800 -240 Level FlightAware ADS-B
02:45PM 40.9904 -74.3045 106° East 214 246 4,700 -720 Descending FlightAware ADS-B
02:45PM 40.9861 -74.2851 106° East 216 249 4,400 -1,260 Descending FlightAware ADS-B
02:45PM 40.9838 -74.2745 106° East 215 247 4,200 -1,200 Descending FlightAware ADS-B
02:45PM 40.9792 -74.2536 106° East 212 244 3,900 -360 Descending FlightAware ADS-B
02:46PM 40.9540 -74.1940 119° Southeast 212 244 3,800 -120 Descending FlightAware
02:46PM 40.9471 -74.1827 129° Southeast 212 244 3,800  Level FlightAware ADS-B
02:47PM 40.9383 -74.1673 127° Southeast 212 244 3,800  Level FlightAware ADS-B
02:47PM 40.9322 -74.1570 128° Southeast 213 245 3,800  Level FlightAware ADS-B
02:47PM 40.9301 -74.1541 134° Southeast 212 244 3,800  Level FlightAware ADS-B
02:47PM 40.9266 -74.1503 141° Southeast 212 244 3,800  Level FlightAware ADS-B
02:47PM 40.9237 -74.1477 146° Southeast 213 245 3,800  Level FlightAware ADS-B
02:47PM 40.9208 -74.1452 147° Southeast 214 246 3,800  Level FlightAware ADS-B
02:47PM 40.9113 -74.1374 148° Southeast 216 249 3,800  Level FlightAware ADS-B
02:47PM 40.8987 -74.1269 148° Southeast 210 242 3,800 -420 Level FlightAware ADS-B
02:48PM 40.8863 -74.1168 148° Southeast 203 234 3,600 -1,200 Descending FlightAware ADS-B
02:48PM 40.8738 -74.1064 148° Southeast 204 235 3,200 -1,500 Descending FlightAware ADS-B
02:48PM 40.8596 -74.0946 148° Southeast 201 231 2,800 -1,200 Descending FlightAware ADS-B
02:48PM 40.8537 -74.0911 156° South 200 230 2,700 -1,020 Descending FlightAware ADS-B
02:48PM 40.8500 -74.0901 168° South 200 230 2,600 -1,380 Descending FlightAware ADS-B
02:49PM 40.8461 -74.0897 176° South 201 231 2,500 -1,500 Descending FlightAware ADS-B
02:49PM 40.8424 -74.0895 178° South 201 231 2,400 -780 Descending FlightAware ADS-B
02:49PM 40.8309 -74.0892 179° South 196 226 2,300 -240 Descending FlightAware ADS-B
02:49PM 40.8192 -74.0886 178° South 188 216 2,300  Level FlightAware ADS-B
02:49PM 40.8165 -74.0887 182° South 187 215 2,300  Level FlightAware ADS-B
02:49PM 40.8133 -74.0893 188° South 188 216 2,300 -780 Level FlightAware ADS-B
02:49PM 40.7971 -74.0978 202° Southwest 188 216 2,000 -1,080 Descending FlightAware ADS-B
02:50PM 40.7896 -74.1030 208° Southwest 195 224 1,800 -1,140 Descending FlightAware ADS-B
02:50PM 40.7761 -74.1115 205° Southwest 179 206 1,500 -960 Descending FlightAware ADS-B
02:50PM 40.7651 -74.1185 206° Southwest 167 192 1,300 -960 Descending FlightAware ADS-B
02:50PM 40.7576 -74.1233 206° Southwest 164 189 1,100 -720 Descending FlightAware ADS-B
02:51PM 40.7487 -74.1291 206° Southwest 158 182 1,000 -900 Descending FlightAware ADS-B
02:51PM 40.7440 -74.1321 206° Southwest 157 181 800 -1,020 Descending FlightAware ADS-B
02:51PM 40.7328 -74.1391 205° Southwest 156 180 600 -240 Descending FlightAware ADS-B
02:52PM 40.7150 -74.1500 205° Southwest 156 180 600  Level FlightAware